Time;durP1;ratioP1;P1;durP2;ratioP2;P2;SDS_P1;SDS_P2;PMS_P1;PMS_P2;Temp;Humidity;BMP_temperature;BMP_pressure;BME280_temperature;BME280_humidity;BME280_pressure;Samples;Min_cycle;Max_cycle;Signal;HPM_P1;HPM_P2
2023/05/31 00:00:50;;;;;;;;;;;;;;;29.77;72.76;100697.88;5107868;27;66721;-42
2023/05/31 00:03:21;;;;;;;12.60;10.02;;;;;;;30.04;72.41;100695.03;5106628;27;70602;-42
2023/05/31 00:05:52;;;;;;;11.82;10.02;;;;;;;30.13;73.38;100701.81;5109177;27;66028;-42
2023/05/31 00:08:23;;;;;;;25.43;15.03;;;;;;;30.07;80.03;100708.13;5103298;27;69940;-41
2023/05/31 00:10:54;;;;;;;36.50;19.42;;;;;;;30.08;80.24;100708.94;5117625;27;65821;-42
2023/05/31 00:13:25;;;;;;;30.23;16.83;;;;;;;30.05;79.81;100699.38;5108951;27;69690;-42
2023/05/31 00:15:55;;;;;;;26.23;15.18;;;;;;;29.86;79.02;100667.91;5106476;27;66305;-42
2023/05/31 00:18:26;;;;;;;18.95;14.25;;;;;;;30.13;78.64;100715.34;5103563;27;69609;-42
2023/05/31 00:20:57;;;;;;;20.53;14.03;;;;;;;30.03;78.72;100696.06;5106079;27;66171;-42
2023/05/31 00:23:28;;;;;;;23.70;14.73;;;;;;;30.19;78.44;100717.16;5113200;27;71263;-42
2023/05/31 00:25:58;;;;;;;22.10;14.93;;;;;;;30.21;78.04;100709.66;5109694;27;66746;-43
2023/05/31 00:28:29;;;;;;;18.05;12.73;;;;;;;30.28;78.31;100732.13;5105307;27;69904;-43
2023/05/31 00:31:00;;;;;;;21.05;13.30;;;;;;;30.32;78.14;100735.22;5107597;27;65377;-43
2023/05/31 00:33:31;;;;;;;17.07;13.43;;;;;;;30.35;77.75;100742.06;5113462;27;69509;-42
2023/05/31 00:36:02;;;;;;;23.20;13.43;;;;;;;30.32;77.52;100731.69;5107999;27;63977;-43
2023/05/31 00:38:33;;;;;;;15.25;11.15;;;;;;;30.42;77.34;100735.56;5114665;27;70271;-43
2023/05/31 00:41:04;;;;;;;16.35;11.85;;;;;;;30.34;77.54;100714.19;5117816;27;66518;-41
2023/05/31 00:43:35;;;;;;;14.70;11.85;;;;;;;30.43;77.38;100736.38;5102423;27;70516;-42
2023/05/31 00:46:09;;;;;;;15.48;12.13;;;;;;;30.49;77.52;100738.22;5106945;27;67576;-43
2023/05/31 00:48:42;;;;;;;17.80;11.00;;;;;;;30.30;77.83;100722.97;5103898;27;69866;-43
2023/05/31 00:51:13;;;;;;;15.32;11.60;;;;;;;30.50;77.91;100745.25;5113878;27;66651;-43
2023/05/31 00:53:44;;;;;;;19.85;11.65;;;;;;;30.55;77.37;100756.25;5103662;27;68885;-43
2023/05/31 00:56:16;;;;;;;11.77;10.70;;;;;;;30.56;77.23;100755.19;5100679;27;66970;-42
2023/05/31 00:58:52;;;;;;;16.65;10.73;;;;;;;29.81;77.22;100639.66;5104116;27;70583;-42
2023/05/31 01:01:26;;;;;;;24.48;10.63;;;;;;;30.43;77.02;100747.22;5109862;27;65941;-43
2023/05/31 01:03:57;;;;;;;18.90;11.48;;;;;;;30.61;76.98;100779.72;5106303;27;70406;-42
2023/05/31 01:06:32;;;;;;;10.80;9.77;;;;;;;30.61;76.83;100778.91;5117387;27;65661;-42
2023/05/31 01:09:09;;;;;;;11.73;9.65;;;;;;;30.65;76.40;100783.69;5107586;27;43471;-44
2023/05/31 01:11:52;;;;;;;14.52;9.25;;;;;;;30.63;76.97;100801.19;5105034;27;65990;-42
2023/05/31 01:14:46;;;;;;;13.95;9.07;;;;;;;30.63;77.20;100787.66;5109229;27;69608;-42
2023/05/31 01:17:22;;;;;;;16.38;9.70;;;;;;;30.72;76.47;100806.09;5106920;27;66286;-43
2023/05/31 01:19:55;;;;;;;11.43;8.82;;;;;;;30.46;76.93;100754.88;5108663;27;69083;-43
2023/05/31 01:22:27;;;;;;;10.93;9.40;;;;;;;30.78;77.11;100804.38;5105867;27;66370;-43
2023/05/31 01:25:25;;;;;;;10.20;9.25;;;;;;;30.78;77.04;100806.25;5117231;27;69923;-43
2023/05/31 01:27:58;;;;;;;9.88;8.60;;;;;;;30.77;76.79;100804.63;5107157;27;65884;-43
2023/05/31 01:30:30;;;;;;;8.90;8.00;;;;;;;29.94;76.71;100657.63;5108698;27;69634;-42
2023/05/31 01:33:03;;;;;;;9.82;8.52;;;;;;;30.72;76.60;100791.72;5109230;27;66637;-42
2023/05/31 01:35:34;;;;;;;8.48;7.88;;;;;;;30.85;76.67;100807.91;5103727;27;70197;-44
2023/05/31 01:38:05;;;;;;;;;;;;;;;30.73;77.55;100826.72;5112415;27;65257;-42
2023/05/31 01:40:37;;;;;;;9.18;8.07;;;;;;;30.86;76.60;100808.72;5110439;27;69585;-43
2023/05/31 01:43:09;;;;;;;9.43;8.52;;;;;;;30.68;76.49;100783.22;5112052;27;66119;-41
2023/05/31 01:45:40;;;;;;;;;;;;;;;30.79;77.17;100818.78;5113213;27;70364;-43
2023/05/31 01:48:12;;;;;;;8.93;7.70;;;;;;;30.82;76.44;100802.09;5111095;27;66503;-44
2023/05/31 01:50:44;;;;;;;8.50;7.75;;;;;;;30.51;76.28;100752.34;5114162;27;69613;-42
2023/05/31 01:53:15;;;;;;;10.48;7.72;;;;;;;31.00;76.39;100823.81;5090305;27;65312;-44
2023/05/31 01:55:47;;;;;;;9.05;8.13;;;;;;;30.33;76.04;100711.69;5108752;27;70469;-44
2023/05/31 01:58:20;;;;;;;13.05;8.18;;;;;;;30.98;76.16;100812.38;5095779;27;65269;-43
2023/05/31 02:00:52;;;;;;;13.82;8.18;;;;;;;31.09;76.08;100824.34;5105436;27;69412;-43
2023/05/31 02:03:23;;;;;;;;;;;;;;;30.91;76.53;100834.09;5105413;27;66471;-43
2023/05/31 02:05:58;;;;;;;9.52;7.93;;;;;;;31.10;76.11;100826.84;5116063;27;70807;-42
2023/05/31 02:08:29;;;;;;;8.07;7.18;;;;;;;31.12;75.87;100832.88;5105557;27;66141;-44
2023/05/31 02:11:01;;;;;;;10.52;6.93;;;;;;;31.15;75.72;100818.88;5115104;27;68616;-42
2023/05/31 02:13:34;;;;;;;9.60;6.93;;;;;;;30.47;75.81;100702.41;5116192;27;65875;-43
2023/05/31 02:16:05;;;;;;;9.23;7.72;;;;;;;30.84;75.77;100756.66;5120970;27;69169;-43
2023/05/31 02:18:36;;;;;;;8.10;7.30;;;;;;;31.11;75.88;100801.41;5106568;27;66587;-42
2023/05/31 02:21:08;;;;;;;8.32;7.53;;;;;;;31.20;75.28;100809.22;5102799;27;70279;-44
2023/05/31 02:23:39;;;;;;;6.50;5.88;;;;;;;31.19;75.95;100807.59;5111020;27;66019;-42
2023/05/31 02:26:11;;;;;;;16.52;7.40;;;;;;;31.04;75.58;100773.56;5103002;27;70559;-43
2023/05/31 02:28:42;;;;;;;7.30;6.55;;;;;;;31.25;75.27;100801.25;5103308;27;66376;-43
2023/05/31 02:31:12;;;;;;;10.90;6.68;;;;;;;31.14;75.58;100778.44;5109921;27;70363;-43
2023/05/31 02:33:54;;;;;;;7.55;6.38;;;;;;;31.30;75.33;100798.72;5111253;27;66474;-43
2023/05/31 02:36:30;;;;;;;7.93;7.00;;;;;;;31.33;75.35;100792.84;5110156;27;69431;-42
2023/05/31 02:39:00;;;;;;;6.95;6.35;;;;;;;31.36;74.92;100787.00;5102269;27;66793;-42
2023/05/31 02:41:31;;;;;;;12.55;6.55;;;;;;;31.36;74.91;100778.88;5105723;27;69922;-43
2023/05/31 02:44:05;;;;;;;9.45;6.03;;;;;;;31.39;74.77;100775.69;5102675;27;65287;-42
2023/05/31 02:46:36;;;;;;;6.22;5.80;;;;;;;31.37;74.77;100766.97;5083718;27;69885;-42
2023/05/31 02:49:07;;;;;;;9.20;6.78;;;;;;;31.26;74.91;100732.44;5108107;27;66411;-43
2023/05/31 02:51:38;;;;;;;6.47;5.90;;;;;;;31.45;74.44;100763.94;5109316;27;69981;-44
2023/05/31 02:54:12;;;;;;;7.55;5.82;;;;;;;31.32;74.70;100720.72;5102762;27;67023;-43
2023/05/31 02:56:43;;;;;;;9.10;5.93;;;;;;;31.46;74.32;100746.63;5101081;27;69974;-44
2023/05/31 02:59:21;;;;;;;6.47;5.88;;;;;;;31.54;74.22;100746.34;5104565;27;66271;-44
2023/05/31 03:02:05;;;;;;;6.13;5.53;;;;;;;31.49;74.41;100738.06;5090067;27;70235;-42
2023/05/31 03:04:45;;;;;;;5.68;5.15;;;;;;;31.53;74.07;100741.94;5105660;27;65377;-43
2023/05/31 03:07:20;;;;;;;6.60;6.00;;;;;;;31.53;73.85;100731.09;5101474;27;69377;-43
2023/05/31 03:09:51;;;;;;;6.60;5.47;;;;;;;31.63;73.87;100737.88;5100747;27;66593;-43
2023/05/31 03:12:22;;;;;;;5.95;5.40;;;;;;;31.44;73.91;100708.09;5104112;27;69433;-42
2023/05/31 03:14:54;;;;;;;6.18;5.57;;;;;;;31.70;73.77;100727.75;5097573;27;65480;-43
2023/05/31 03:17:25;;;;;;;6.07;5.57;;;;;;;31.70;73.89;100730.47;5116702;27;69676;-45
2023/05/31 03:19:56;;;;;;;6.40;5.75;;;;;;;31.19;73.96;100664.78;5109484;27;66114;-43
2023/05/31 03:22:27;;;;;;;5.18;3.88;;;;;;;31.80;73.29;100734.28;5111966;27;69220;-43
2023/05/31 03:24:58;;;;;;;3.88;3.67;;;;;;;31.86;72.89;100727.13;5097590;27;65877;-44
2023/05/31 03:27:30;;;;;;;4.45;4.15;;;;;;;31.95;72.56;100728.47;5111326;27;70176;-44
2023/05/31 03:30:01;;;;;;;4.63;4.22;;;;;;;32.00;72.40;100720.47;5114902;27;65257;-45
2023/05/31 03:32:36;;;;;;;4.47;4.15;;;;;;;31.87;72.31;100679.94;5106782;27;71004;-45
2023/05/31 03:35:08;;;;;;;5.53;4.55;;;;;;;32.10;72.01;100695.50;5110699;27;65917;-43
2023/05/31 03:37:38;;;;;;;4.10;3.80;;;;;;;32.03;72.11;100690.16;5125113;27;70639;-44
2023/05/31 03:40:12;;;;;;;5.47;4.40;;;;;;;32.19;71.63;100720.41;5115246;27;65547;-44
2023/05/31 03:42:43;;;;;;;4.30;4.00;;;;;;;31.85;71.51;100646.81;5112426;27;70167;-44
2023/05/31 03:45:15;;;;;;;4.57;4.18;;;;;;;32.24;71.40;100688.78;5119235;27;66033;-48
2023/05/31 03:47:45;;;;;;;3.75;3.55;;;;;;;32.29;71.17;100688.09;5103568;27;68555;-43
2023/05/31 03:50:17;;;;;;;3.95;3.40;;;;;;;32.26;71.07;100667.66;5106525;27;66436;-43
2023/05/31 03:52:48;;;;;;;4.68;3.58;;;;;;;32.32;70.91;100665.91;5111847;27;70112;-44
2023/05/31 03:55:20;;;;;;;4.18;3.83;;;;;;;32.21;70.90;100661.28;5105801;27;66012;-43
2023/05/31 03:57:51;;;;;;;4.35;4.05;;;;;;;32.25;70.75;100654.31;5110398;27;69653;-44
2023/05/31 04:00:22;;;;;;;3.63;3.33;;;;;;;32.30;70.54;100657.16;5101546;27;66292;-45
2023/05/31 04:02:53;;;;;;;5.00;3.60;;;;;;;32.37;70.73;100674.13;5116027;27;70389;-44
2023/05/31 04:05:32;;;;;;;4.03;3.67;;;;;;;32.43;70.47;100667.78;5091702;27;65741;-44
2023/05/31 04:08:03;;;;;;;5.88;3.53;;;;;;;32.43;70.47;100662.38;5119421;27;70273;-44
2023/05/31 04:10:35;;;;;;;3.72;3.20;;;;;;;32.43;70.38;100651.50;5109011;27;66890;-45
2023/05/31 04:13:06;;;;;;;3.70;3.15;;;;;;;32.38;70.19;100626.94;5106330;27;70495;-45
2023/05/31 04:15:37;;;;;;;3.75;3.45;;;;;;;32.35;70.46;100622.00;5107680;27;66573;-47
2023/05/31 04:18:08;;;;;;;3.45;3.15;;;;;;;32.41;69.89;100629.19;5135684;27;69564;-43
2023/05/31 04:20:39;;;;;;;3.97;3.10;;;;;;;32.52;69.98;100637.59;5107127;27;65823;-44
2023/05/31 04:23:09;;;;;;;4.10;3.40;;;;;;;32.46;69.69;100613.06;5113569;27;70036;-44
2023/05/31 04:25:40;;;;;;;4.30;3.90;;;;;;;32.38;69.58;100599.81;5112029;27;67322;-44
2023/05/31 04:28:12;;;;;;;4.18;3.35;;;;;;;32.60;69.54;100618.25;5099785;27;69941;-44
2023/05/31 04:30:44;;;;;;;;;;;;;;;32.32;69.77;100617.03;5113867;27;66580;-44
2023/05/31 04:33:17;;;;;;;4.03;3.13;;;;;;;32.49;69.53;100601.72;5110247;27;69747;-44
2023/05/31 04:35:50;;;;;;;3.90;3.22;;;;;;;32.62;69.28;100599.78;5113893;27;65388;-45
2023/05/31 04:38:26;;;;;;;3.63;3.30;;;;;;;32.68;69.20;100598.81;5106058;27;70034;-44
2023/05/31 04:41:00;;;;;;;5.50;3.30;;;;;;;32.66;69.01;100584.69;5106222;27;66670;-43
2023/05/31 04:43:30;;;;;;;;;;;;;;;32.40;69.52;100584.13;5120259;27;70191;-44
2023/05/31 04:46:01;;;;;;;4.20;3.35;;;;;;;32.39;68.93;100541.72;5111428;27;66695;-44
2023/05/31 04:48:33;;;;;;;3.97;3.30;;;;;;;32.72;68.85;100578.28;5102618;27;69694;-44
2023/05/31 04:51:04;;;;;;;3.97;3.35;;;;;;;32.52;68.92;100534.44;5109005;27;66434;-45
2023/05/31 04:53:36;;;;;;;4.78;3.67;;;;;;;32.77;68.60;100564.81;5111695;27;69432;-46
2023/05/31 04:56:09;;;;;;;3.75;3.38;;;;;;;32.63;68.65;100536.28;5110340;27;65905;-45
2023/05/31 04:58:41;;;;;;;3.53;3.22;;;;;;;32.83;68.63;100552.97;5118598;27;71836;-45
2023/05/31 05:01:14;;;;;;;3.67;3.38;;;;;;;32.72;68.80;100540.25;5105952;27;64158;-44
2023/05/31 05:04:01;;;;;;;5.38;3.30;;;;;;;32.77;68.34;100537.66;5105014;27;70190;-44
2023/05/31 05:06:33;;;;;;;9.25;4.60;;;;;;;32.66;68.55;100550.19;5106077;27;65222;-43
2023/05/31 05:09:04;;;;;;;6.00;4.78;;;;;;;32.40;68.86;100510.81;5102500;27;70055;-43
2023/05/31 05:11:35;;;;;;;6.70;4.68;;;;;;;32.60;68.91;100553.06;5114423;27;66347;-44
2023/05/31 05:14:06;;;;;;;4.63;4.22;;;;;;;32.64;69.29;100570.50;5107518;27;69314;-43
2023/05/31 05:16:39;;;;;;;5.78;4.90;;;;;;;32.59;69.56;100567.69;5117177;27;66827;-44
2023/05/31 05:19:09;;;;;;;6.07;4.90;;;;;;;32.51;70.17;100546.34;5105393;27;70360;-44
2023/05/31 05:21:42;;;;;;;10.93;4.93;;;;;;;32.59;70.37;100545.97;5103629;27;66359;-44
2023/05/31 05:24:16;;;;;;;8.70;4.70;;;;;;;32.53;70.57;100536.88;5118685;27;70493;-43
2023/05/31 05:26:48;;;;;;;5.32;4.82;;;;;;;32.44;70.13;100519.28;5116739;27;66546;-44
2023/05/31 05:29:19;;;;;;;5.65;4.25;;;;;;;32.59;70.28;100522.34;5079686;27;68907;-44
2023/05/31 05:31:50;;;;;;;4.22;3.92;;;;;;;32.64;69.89;100497.19;5107258;27;65408;-44
2023/05/31 05:34:21;;;;;;;;;;;;;;;32.53;70.68;100509.72;5107255;27;69502;-45
2023/05/31 05:36:52;;;;;;;4.40;3.92;;;;;;;32.67;69.71;100472.25;5112723;27;66214;-45
2023/05/31 05:39:23;;;;;;;6.47;3.63;;;;;;;32.77;69.79;100477.91;5107628;27;69220;-46
2023/05/31 05:41:54;;;;;;;6.32;3.67;;;;;;;32.82;70.03;100469.84;5103476;27;65621;-45
2023/05/31 05:44:25;;;;;;;4.70;4.30;;;;;;;32.93;69.72;100470.84;5105175;27;69851;-47
2023/05/31 05:46:56;;;;;;;4.82;4.43;;;;;;;32.98;69.62;100464.69;5113598;27;65729;-44
2023/05/31 05:49:26;;;;;;;4.65;4.03;;;;;;;32.72;69.12;100423.47;5106420;27;69816;-46
2023/05/31 05:51:57;;;;;;;4.10;3.73;;;;;;;33.04;69.42;100475.44;5109567;27;65942;-47
2023/05/31 05:54:28;;;;;;;4.25;3.85;;;;;;;33.09;69.35;100480.13;5091456;27;69456;-47
2023/05/31 05:56:59;;;;;;;4.32;4.03;;;;;;;32.99;69.36;100467.16;5106943;27;66442;-43
2023/05/31 05:59:32;;;;;;;3.92;3.60;;;;;;;33.15;69.31;100481.84;5114941;27;70264;-49
2023/05/31 06:02:13;;;;;;;7.30;5.57;;;;;;;32.81;68.93;100451.88;5105003;27;66063;-42
2023/05/31 06:04:43;;;;;;;6.90;4.75;;;;;;;32.84;69.52;100466.88;5106367;27;70511;-45
2023/05/31 06:07:21;;;;;;;9.50;6.13;;;;;;;32.96;69.69;100466.81;5109468;27;66058;-44
2023/05/31 06:09:53;;;;;;;8.77;5.60;;;;;;;32.87;70.14;100466.38;5104308;27;70411;-44
2023/05/31 06:12:24;;;;;;;6.50;6.00;;;;;;;32.86;70.68;100449.25;5106083;27;66585;-44
2023/05/31 06:14:55;;;;;;;6.20;5.60;;;;;;;32.84;70.62;100451.38;5105125;27;69727;-44
2023/05/31 06:17:26;;;;;;;11.40;6.35;;;;;;;32.86;70.68;100443.00;5103281;27;66380;-43
2023/05/31 06:19:57;;;;;;;7.83;5.77;;;;;;;32.81;70.98;100430.16;5109214;27;69962;-44
2023/05/31 06:22:28;;;;;;;6.93;6.07;;;;;;;32.66;71.43;100395.41;5109811;27;66426;-43
2023/05/31 06:24:59;;;;;;;9.95;6.45;;;;;;;32.31;70.53;100330.38;5102404;27;70763;-46
2023/05/31 06:27:30;;;;;;;6.43;5.95;;;;;;;32.76;71.07;100400.19;5109357;27;66302;-44
2023/05/31 06:30:02;;;;;;;8.60;6.78;;;;;;;32.91;71.12;100402.34;5114153;27;69765;-43
2023/05/31 06:32:36;;;;;;;8.13;6.32;;;;;;;32.84;71.29;100386.19;5114122;27;66445;-43
2023/05/31 06:35:08;;;;;;;;;;;;;;;32.75;71.60;100382.25;5111525;27;69206;-43
2023/05/31 06:37:40;;;;;;;9.27;7.20;;;;;;;32.28;71.56;100282.03;5108106;27;66510;-46
2023/05/31 06:40:11;;;;;;;9.05;7.07;;;;;;;32.91;71.23;100405.88;5118715;27;69942;-44
2023/05/31 06:42:41;;;;;;;7.85;7.07;;;;;;;32.89;71.17;100391.72;5104593;27;67017;-43
2023/05/31 06:45:26;;;;;;;11.07;6.55;;;;;;;32.81;71.20;100397.56;5113863;27;70131;-44
2023/05/31 06:48:17;;;;;;;7.68;6.63;;;;;;;32.90;71.48;100385.25;5096515;27;65524;-44
2023/05/31 06:51:06;;;;;;;11.32;7.15;;;;;;;32.88;71.34;100371.06;5111554;27;70078;-44
2023/05/31 06:54:06;;;;;;;8.38;6.65;;;;;;;32.97;71.34;100378.81;5055508;27;64222;-44
2023/05/31 06:56:38;;;;;;;6.68;5.85;;;;;;;32.81;71.17;100343.22;5116969;27;69677;-44
2023/05/31 06:59:09;;;;;;;6.72;6.22;;;;;;;33.01;71.23;100374.56;5098944;27;65705;-46
2023/05/31 07:01:40;;;;;;;11.73;6.13;;;;;;;33.07;70.82;100389.88;5116049;27;68935;-46
2023/05/31 07:04:11;;;;;;;6.85;6.20;;;;;;;33.09;70.75;100393.16;5119466;27;66949;-44
2023/05/31 07:06:43;;;;;;;8.52;5.68;;;;;;;32.98;70.40;100375.03;5109300;27;70741;-44
2023/05/31 07:09:15;;;;;;;6.00;5.40;;;;;;;33.16;70.45;100399.28;5112886;27;66638;-45
2023/05/31 07:11:55;;;;;;;6.10;5.32;;;;;;;33.03;70.04;100375.94;5108213;27;69737;-44
2023/05/31 07:14:30;;;;;;;6.80;5.28;;;;;;;33.08;69.88;100391.53;5111576;27;66594;-43
2023/05/31 07:17:01;;;;;;;6.38;5.20;;;;;;;33.24;70.00;100411.59;5098631;27;69738;-44
2023/05/31 07:19:31;;;;;;;5.68;4.93;;;;;;;33.17;69.66;100398.19;5111472;27;66465;-44
2023/05/31 07:22:02;;;;;;;6.60;5.30;;;;;;;33.28;69.59;100413.59;5112105;27;69384;-45
2023/05/31 07:24:33;;;;;;;7.72;5.97;;;;;;;33.28;69.30;100413.59;5109941;27;65479;-44
2023/05/31 07:27:03;;;;;;;8.25;5.07;;;;;;;33.17;68.97;100400.91;5113133;27;70857;-43
2023/05/31 07:29:35;;;;;;;7.38;5.47;;;;;;;33.32;68.96;100414.75;5109271;27;66304;-44
2023/05/31 07:32:05;;;;;;;;;;;;;;;33.13;69.34;100410.63;5105268;27;70300;-44
2023/05/31 07:34:36;;;;;;;5.88;5.45;;;;;;;33.29;68.92;100407.09;5108474;27;65235;-44
2023/05/31 07:37:26;;;;;;;7.15;6.13;;;;;;;33.30;68.61;100406.00;5113955;27;70000;-44
2023/05/31 07:39:57;;;;;;;5.53;4.93;;;;;;;33.42;68.72;100396.94;5112304;27;65191;-44
2023/05/31 07:42:28;;;;;;;5.38;4.53;;;;;;;33.42;69.14;100396.94;5107440;27;69258;-43
2023/05/31 07:44:59;;;;;;;5.10;4.70;;;;;;;33.40;68.43;100369.16;5103233;27;66004;-43
2023/05/31 07:47:31;;;;;;;5.03;4.63;;;;;;;33.53;68.27;100382.44;5113886;27;71724;-44
2023/05/31 07:50:03;;;;;;;5.95;4.90;;;;;;;33.62;68.02;100385.56;5108868;27;65641;-44
2023/05/31 07:52:34;;;;;;;12.52;6.20;;;;;;;33.52;67.60;100380.78;5103587;27;70034;-43
2023/05/31 07:55:05;;;;;;;6.45;5.80;;;;;;;33.48;67.65;100391.31;5106518;27;66373;-44
2023/05/31 07:57:36;;;;;;;6.30;5.80;;;;;;;33.42;67.54;100403.19;5108073;27;70117;-44
2023/05/31 08:00:08;;;;;;;7.55;6.30;;;;;;;33.36;67.62;100405.00;5108827;27;66571;-43
2023/05/31 08:02:42;;;;;;;12.40;6.15;;;;;;;33.31;67.95;100418.53;5104511;27;70192;-43
2023/05/31 08:05:13;;;;;;;7.03;6.13;;;;;;;33.36;67.53;100410.44;5104095;27;65839;-45
2023/05/31 08:07:44;;;;;;;11.20;6.45;;;;;;;33.28;67.64;100397.28;5111602;27;69281;-46
2023/05/31 08:10:16;;;;;;;8.23;6.20;;;;;;;33.33;67.93;100393.81;5103978;27;66261;-44
2023/05/31 08:12:47;;;;;;;7.27;5.60;;;;;;;33.46;67.99;100384.47;5100063;27;70052;-44
2023/05/31 08:15:17;;;;;;;9.52;5.88;;;;;;;33.32;67.74;100335.06;5109339;27;65709;-44
2023/05/31 08:17:48;;;;;;;5.97;5.45;;;;;;;33.55;67.86;100364.00;5110191;27;68784;-47
2023/05/31 08:20:18;;;;;;;10.77;6.88;;;;;;;32.76;67.75;100285.28;5111242;27;65366;-46
2023/05/31 08:22:49;;;;;;;8.77;6.40;;;;;;;33.40;67.61;100367.28;5111671;27;69949;-45
2023/05/31 08:25:22;;;;;;;11.60;7.10;;;;;;;33.23;67.53;100345.53;5104417;27;65825;-45
2023/05/31 08:27:52;;;;;;;7.22;6.68;;;;;;;33.30;67.79;100357.09;5106176;27;70217;-44
2023/05/31 08:30:23;;;;;;;8.30;7.05;;;;;;;33.21;68.00;100331.41;5107662;27;66542;-45
2023/05/31 08:32:54;;;;;;;8.43;7.70;;;;;;;33.24;68.35;100330.91;5112689;27;68198;-45
2023/05/31 08:35:25;;;;;;;14.77;7.70;;;;;;;33.25;68.27;100331.72;5107701;27;66102;-45
2023/05/31 08:37:57;;;;;;;9.73;7.53;;;;;;;33.21;68.23;100325.97;5108263;27;69491;-44
2023/05/31 08:40:28;;;;;;;8.65;7.28;;;;;;;33.15;68.40;100314.19;5113659;27;66620;-44
2023/05/31 08:43:15;;;;;;;8.55;8.00;;;;;;;33.20;68.20;100323.50;5112057;27;70601;-46
2023/05/31 08:45:46;;;;;;;9.55;8.63;;;;;;;32.74;68.41;100244.00;5111428;27;66952;-46
2023/05/31 08:48:40;;;;;;;9.13;8.25;;;;;;;33.07;68.35;100311.06;5106575;27;69682;-44
2023/05/31 08:51:14;;;;;;;9.20;8.48;;;;;;;32.24;68.31;100180.47;5108297;27;66266;-44
2023/05/31 08:53:47;;;;;;;10.52;9.55;;;;;;;33.21;68.02;100331.41;5108188;27;69829;-46
2023/05/31 08:56:20;;;;;;;11.13;9.02;;;;;;;32.51;68.25;100221.34;5113669;27;66627;-45
2023/05/31 08:58:51;;;;;;;12.52;10.13;;;;;;;33.07;68.50;100302.91;5109535;27;70050;-44
2023/05/31 09:01:24;;;;;;;12.17;10.93;;;;;;;33.05;68.23;100315.94;5102893;27;64943;-45
2023/05/31 09:03:55;;;;;;;14.70;10.23;;;;;;;33.12;68.25;100343.75;5109498;27;70609;-44
2023/05/31 09:06:26;;;;;;;11.30;10.40;;;;;;;33.08;68.47;100338.00;5113403;27;65596;-44
2023/05/31 09:08:57;;;;;;;11.48;10.38;;;;;;;33.01;68.15;100341.94;5114769;27;68614;-45
2023/05/31 09:11:28;;;;;;;11.98;10.75;;;;;;;33.09;68.33;100355.94;5107569;27;65376;-45
2023/05/31 09:13:59;;;;;;;11.93;10.53;;;;;;;32.62;68.40;100268.50;5113832;27;69595;-44
2023/05/31 09:16:29;;;;;;;13.90;9.82;;;;;;;33.00;68.15;100329.44;5115173;27;65654;-43
2023/05/31 09:19:05;;;;;;;14.57;9.00;;;;;;;32.24;67.79;100186.72;5112106;27;69131;-44
2023/05/31 09:21:40;;;;;;;10.38;8.57;;;;;;;33.13;67.43;100326.41;5109739;27;65597;-44
2023/05/31 09:24:15;;;;;;;8.80;8.10;;;;;;;33.28;67.84;100332.03;5113260;27;70193;-43
2023/05/31 09:26:51;;;;;;;9.15;8.45;;;;;;;33.27;67.60;100330.41;5110111;27;66872;-44
2023/05/31 09:29:22;;;;;;;9.35;8.55;;;;;;;33.33;67.49;100337.56;5108701;27;69571;-44
2023/05/31 09:32:09;;;;;;;11.35;8.63;;;;;;;32.47;67.13;100212.88;5106070;27;65242;-44
2023/05/31 09:34:40;;;;;;;9.80;8.93;;;;;;;33.35;67.27;100335.41;5118476;27;69207;-44
2023/05/31 09:37:23;;;;;;;11.53;10.40;;;;;;;32.31;66.92;100200.09;5100906;27;67267;-44
2023/05/31 09:39:57;;;;;;;11.43;9.30;;;;;;;33.16;67.63;100334.03;5108827;27;70104;-44
2023/05/31 09:42:29;;;;;;;9.23;8.45;;;;;;;32.99;67.76;100322.31;5096213;27;65259;-43
2023/05/31 09:45:00;;;;;;;9.30;8.38;;;;;;;33.08;68.12;100343.44;5102177;27;70125;-45
2023/05/31 09:47:30;;;;;;;10.82;9.15;;;;;;;32.93;68.39;100333.13;5104071;27;66521;-43
2023/05/31 09:50:02;;;;;;;8.50;7.82;;;;;;;33.05;68.02;100338.50;5113383;27;70255;-45
2023/05/31 09:52:38;;;;;;;7.50;6.90;;;;;;;33.18;67.58;100341.94;5115515;27;65876;-44
2023/05/31 09:55:10;;;;;;;8.32;7.65;;;;;;;33.21;67.63;100331.41;5118717;27;70103;-45
2023/05/31 09:57:43;;;;;;;8.07;7.47;;;;;;;33.03;67.71;100307.22;5100687;27;66603;-44
2023/05/31 10:00:21;;;;;;;8.43;7.70;;;;;;;33.20;67.36;100337.91;5112684;27;69468;-45
2023/05/31 10:02:54;;;;;;;10.75;7.13;;;;;;;33.25;67.49;100340.69;5109483;27;66574;-43
2023/05/31 10:05:25;;;;;;;8.35;7.32;;;;;;;33.12;67.30;100316.56;5110169;27;70416;-47
2023/05/31 10:07:56;;;;;;;8.38;7.60;;;;;;;33.29;67.24;100360.88;5104960;27;65927;-45
2023/05/31 10:10:27;;;;;;;7.85;7.10;;;;;;;33.28;67.35;100375.53;5110052;27;70781;-43
2023/05/31 10:13:02;;;;;;;7.13;6.57;;;;;;;33.26;67.27;100383.09;5105432;27;65953;-44
2023/05/31 10:15:34;;;;;;;7.70;6.95;;;;;;;33.31;67.18;100396.78;5109234;27;70501;-44
2023/05/31 10:18:14;;;;;;;9.55;6.88;;;;;;;32.74;66.60;100304.56;5111634;27;66434;-45
2023/05/31 10:20:51;;;;;;;7.28;6.78;;;;;;;33.32;66.67;100408.47;5103872;27;70033;-45
2023/05/31 10:23:27;;;;;;;7.70;6.78;;;;;;;33.22;66.40;100401.00;5105839;27;64775;-44
2023/05/31 10:26:27;;;;;;;7.38;6.80;;;;;;;33.06;66.63;100399.91;5107398;27;69753;-44
2023/05/31 10:29:29;;;;;;;6.85;6.25;;;;;;;33.11;66.53;100401.91;5106655;27;66367;-45
2023/05/31 10:32:10;;;;;;;7.15;6.55;;;;;;;32.13;66.22;100257.34;5097829;27;70762;-45
2023/05/31 10:34:41;;;;;;;;;;;;;;;32.89;67.39;100429.75;5124756;27;66473;-45
2023/05/31 10:37:13;;;;;;;6.88;6.25;;;;;;;32.31;66.85;100289.66;5112650;27;70123;-44
2023/05/31 10:40:16;;;;;;;7.57;5.72;;;;;;;33.18;66.77;100435.16;5112221;27;67434;-45
2023/05/31 10:42:49;;;;;;;;;;;;;;;32.86;66.88;100443.84;5110656;27;70508;-44
2023/05/31 10:45:29;;;;;;;6.82;5.57;;;;;;;32.84;65.82;100418.78;5108746;27;66131;-44
2023/05/31 10:48:09;;;;;;;7.13;5.68;;;;;;;32.89;65.62;100405.31;5110663;27;70448;-44
2023/05/31 10:51:00;;;;;;;5.03;4.72;;;;;;;33.03;65.57;100453.94;5105349;27;66960;-44
2023/05/31 10:53:36;;;;;;;6.10;5.50;;;;;;;32.97;65.53;100427.72;5105519;27;70230;-43
2023/05/31 10:56:11;;;;;;;8.05;5.50;;;;;;;33.12;65.13;100457.88;5115080;27;65796;-43
2023/05/31 10:58:51;;;;;;;5.72;5.25;;;;;;;33.09;65.22;100458.38;5116511;27;69459;-45
2023/05/31 11:01:22;;;;;;;5.22;4.70;;;;;;;33.11;65.82;100467.13;5113358;27;66176;-45
2023/05/31 11:03:57;;;;;;;6.50;4.63;;;;;;;32.87;66.05;100441.94;5115007;27;69951;-45
2023/05/31 11:06:36;;;;;;;5.32;4.82;;;;;;;32.43;65.83;100380.03;5109874;27;66384;-44
2023/05/31 11:09:11;;;;;;;7.25;5.13;;;;;;;33.07;65.78;100487.69;5117417;27;69903;-47
2023/05/31 11:11:46;;;;;;;5.40;5.00;;;;;;;33.08;66.24;100494.78;5109507;27;66414;-47
2023/05/31 11:14:26;;;;;;;7.45;5.18;;;;;;;32.97;65.98;100487.50;5112287;27;69765;-45
2023/05/31 11:17:04;;;;;;;6.85;5.05;;;;;;;33.04;65.98;100486.31;5117471;27;66654;-45
2023/05/31 11:19:36;;;;;;;5.35;5.00;;;;;;;33.06;65.92;100483.34;5111619;27;70047;-45
2023/05/31 11:22:13;;;;;;;7.13;5.68;;;;;;;32.85;65.97;100466.66;5116482;27;64301;-44
2023/05/31 11:24:50;;;;;;;6.88;6.20;;;;;;;33.03;66.25;100486.53;5107461;27;67889;-46
2023/05/31 11:27:35;;;;;;;6.88;6.18;;;;;;;32.46;66.03;100406.72;5111517;27;66224;-45
2023/05/31 11:30:13;;;;;;;7.28;6.57;;;;;;;32.84;66.41;100456.81;5107105;27;70316;-44
2023/05/31 11:32:43;;;;;;;7.72;6.50;;;;;;;32.98;66.58;100483.69;5118667;27;65759;-43
2023/05/31 11:35:17;;;;;;;8.30;7.00;;;;;;;32.98;66.82;100478.25;5110998;27;69473;-44
2023/05/31 11:37:48;;;;;;;7.22;6.53;;;;;;;32.90;66.75;100466.75;5107499;27;66471;-44
2023/05/31 11:40:19;;;;;;;6.95;6.25;;;;;;;32.92;66.73;100475.44;5114062;27;70585;-46
2023/05/31 11:42:51;;;;;;;7.20;6.47;;;;;;;32.80;66.71;100466.53;5113757;27;66097;-44
2023/05/31 11:45:25;;;;;;;7.07;6.57;;;;;;;32.25;66.73;100377.50;5112960;27;69905;-44
2023/05/31 11:48:04;;;;;;;6.75;6.10;;;;;;;32.89;66.74;100484.09;5107991;27;66344;-44
2023/05/31 11:50:35;;;;;;;6.60;5.95;;;;;;;32.85;67.12;100474.78;5105909;27;69343;-45
2023/05/31 11:53:06;;;;;;;7.18;6.47;;;;;;;32.14;67.11;100368.31;5109139;27;66905;-46